Time;durP1;ratioP1;P1;durP2;ratioP2;P2;SDS_P1;SDS_P2;PMS_P1;PMS_P2;Temp;Humidity;BMP_temperature;BMP_pressure;BME280_temperature;BME280_humidity;BME280_pressure;Samples;Min_cycle;Max_cycle;Signal;HPM_P1;HPM_P2
2021/12/23 00:01:33;;;;;;;6.10;3.30;;;;;;;-140.79;100.00;63287.88;5060744;28;20039;-52
2021/12/23 00:03:59;;;;;;;5.43;3.00;;;;;;;-140.79;100.00;63287.88;5045395;28;20025;-53
2021/12/23 00:06:24;;;;;;;6.32;3.45;;;;;;;-140.79;100.00;63287.88;5045217;28;20404;-52
2021/12/23 00:08:49;;;;;;;10.23;6.15;;;;;;;-140.79;100.00;63287.88;5044555;28;20029;-52
2021/12/23 00:11:15;;;;;;;11.25;6.13;;;;;;;-140.79;100.00;63287.88;5045066;28;20075;-51
2021/12/23 00:13:49;;;;;;;11.98;8.43;;;;;;;-140.79;100.00;63287.88;5044970;28;20086;-52
2021/12/23 00:16:18;;;;;;;69.65;49.55;;;;;;;-140.79;100.00;63287.88;5044835;28;20589;-51
2021/12/23 00:18:51;;;;;;;11.88;7.90;;;;;;;-140.79;100.00;63287.88;5044178;28;20053;-52
2021/12/23 00:24:01;;;;;;;5.65;3.92;;;;;;;-140.79;100.00;63287.88;5045210;28;20268;-52
2021/12/23 00:26:27;;;;;;;1049.20;715.42;;;;;;;-140.79;100.00;63287.88;5044754;28;20036;-52
2021/12/23 00:28:52;;;;;;;62.15;45.63;;;;;;;-140.79;100.00;63287.88;5044369;28;20025;-54
2021/12/23 00:31:18;;;;;;;98.55;78.18;;;;;;;-140.79;100.00;63287.88;5044342;28;20656;-51
2021/12/23 00:33:44;;;;;;;662.15;431.92;;;;;;;-140.79;100.00;63287.88;5044915;28;20021;-52
2021/12/23 00:36:11;;;;;;;3.90;2.75;;;;;;;-140.79;100.00;63287.88;5026557;28;20224;-52
2021/12/23 00:38:42;;;;;;;4.85;2.97;;;;;;;-140.79;100.00;63287.88;5037551;28;20048;-54
2021/12/23 00:41:08;;;;;;;5.35;2.85;;;;;;;-140.79;100.00;63287.88;5038970;28;20116;-52
2021/12/23 00:43:34;;;;;;;4.47;3.05;;;;;;;-140.79;100.00;63287.88;5039228;28;20037;-52
2021/12/23 00:46:00;;;;;;;5.88;3.63;;;;;;;-140.79;100.00;63287.88;5044394;28;20037;-53
2021/12/23 00:48:25;;;;;;;6.53;3.70;;;;;;;-140.79;100.00;63287.88;5044418;28;20349;-52
2021/12/23 00:50:51;;;;;;;10.20;7.65;;;;;;;-140.79;100.00;63287.88;5044267;28;20025;-52
2021/12/23 00:53:19;;;;;;;529.15;254.77;;;;;;;-140.79;100.00;63287.88;5044799;28;20670;-53
2021/12/23 00:55:49;;;;;;;6.25;3.60;;;;;;;-140.79;100.00;63287.88;5044887;28;20024;-52
2021/12/23 00:58:14;;;;;;;6.10;4.27;;;;;;;-140.79;100.00;63287.88;5043627;28;20086;-52
2021/12/23 01:00:40;;;;;;;8.00;5.78;;;;;;;-140.79;100.00;63287.88;5044517;28;20276;-53
2021/12/23 01:03:06;;;;;;;5.25;2.90;;;;;;;-140.79;100.00;63287.88;5044544;28;20116;-52
2021/12/23 01:05:31;;;;;;;5.22;3.20;;;;;;;-140.79;100.00;63287.88;5043960;28;20037;-52
2021/12/23 01:07:56;;;;;;;19.20;15.80;;;;;;;-140.79;100.00;63287.88;5043655;28;20518;-52
2021/12/23 01:10:24;;;;;;;6.35;3.80;;;;;;;-140.79;100.00;63287.88;5043779;28;20506;-51
2021/12/23 01:12:55;;;;;;;8.63;5.65;;;;;;;-140.79;100.00;63287.88;5043973;28;20041;-53
2021/12/23 01:18:08;;;;;;;4.80;3.20;;;;;;;-140.79;100.00;63287.88;5043440;28;20107;-53
2021/12/23 01:20:37;;;;;;;11.65;7.72;;;;;;;-140.79;100.00;63287.88;5061839;28;20035;-53
2021/12/23 01:23:03;;;;;;;5.53;4.10;;;;;;;-140.79;100.00;63287.88;5063114;28;20029;-53
2021/12/23 01:25:29;;;;;;;6.20;3.97;;;;;;;-140.79;100.00;63287.88;5063342;28;20743;-52
2021/12/23 01:27:54;;;;;;;6.80;3.70;;;;;;;-140.79;100.00;63287.88;5063053;28;20051;-52
2021/12/23 01:30:20;;;;;;;6.38;4.38;;;;;;;-140.79;100.00;63287.88;5054416;28;20661;-52
2021/12/23 01:32:46;;;;;;;6.03;3.67;;;;;;;-140.79;100.00;63287.88;5031278;28;20495;-53
2021/12/23 01:35:12;;;;;;;9.52;5.85;;;;;;;-140.79;100.00;63287.88;5042624;28;20421;-52
2021/12/23 01:37:37;;;;;;;6.00;3.33;;;;;;;-140.79;100.00;63287.88;5042869;28;20505;-52
2021/12/23 01:40:03;;;;;;;5.32;2.90;;;;;;;-140.79;100.00;63287.88;5024530;28;20041;-52
2021/12/23 01:42:29;;;;;;;5.85;3.45;;;;;;;-140.79;100.00;63287.88;5042520;28;20483;-53
2021/12/23 01:44:54;;;;;;;6.07;3.60;;;;;;;-140.79;100.00;63287.88;5041750;28;20108;-52
2021/12/23 01:47:20;;;;;;;5.32;3.60;;;;;;;-140.79;100.00;63287.88;5042967;28;20640;-52
2021/12/23 01:49:45;;;;;;;5.25;3.42;;;;;;;-140.79;100.00;63287.88;5042197;28;20033;-52
2021/12/23 01:52:11;;;;;;;5.30;3.50;;;;;;;-140.79;100.00;63287.88;5026055;28;20044;-51
2021/12/23 01:54:36;;;;;;;5.50;3.53;;;;;;;-140.79;100.00;63287.88;5042906;28;20474;-52
2021/12/23 01:57:01;;;;;;;25.88;21.70;;;;;;;-140.79;100.00;63287.88;5042750;28;20033;-51
2021/12/23 01:59:27;;;;;;;7.28;5.60;;;;;;;-140.79;100.00;63287.88;5028402;28;20400;-51
2021/12/23 02:01:52;;;;;;;10.38;6.38;;;;;;;-140.79;100.00;63287.88;5037710;28;20079;-51
2021/12/23 02:04:18;;;;;;;10.55;6.03;;;;;;;-140.79;100.00;63287.88;5042645;28;20386;-52
2021/12/23 02:06:43;;;;;;;5.93;2.80;;;;;;;-140.79;100.00;63287.88;5033661;28;20041;-51
2021/12/23 02:09:09;;;;;;;9.65;7.22;;;;;;;-140.79;100.00;63287.88;5032675;28;20055;-53
2021/12/23 02:11:34;;;;;;;5.97;3.97;;;;;;;-140.79;100.00;63287.88;5042579;28;20128;-53
2021/12/23 02:13:59;;;;;;;5.78;3.25;;;;;;;-140.79;100.00;63287.88;5042137;28;20017;-51
2021/12/23 02:16:25;;;;;;;5.30;3.42;;;;;;;-140.79;100.00;63287.88;5042242;28;20025;-51
2021/12/23 02:18:50;;;;;;;5.60;3.33;;;;;;;-140.79;100.00;63287.88;5032917;28;20046;-51
2021/12/23 02:21:16;;;;;;;80.80;61.95;;;;;;;-140.79;100.00;63287.88;5033908;28;20029;-52
2021/12/23 02:23:41;;;;;;;4.68;3.03;;;;;;;-140.79;100.00;63287.88;5045508;28;20033;-51
2021/12/23 02:26:06;;;;;;;8.27;5.57;;;;;;;-140.79;100.00;63287.88;5042436;28;20511;-52
2021/12/23 02:28:32;;;;;;;5.15;3.25;;;;;;;-140.79;100.00;63287.88;5041926;28;20063;-52
2021/12/23 02:30:58;;;;;;;7.00;4.60;;;;;;;-140.79;100.00;63287.88;5040273;28;20036;-51
2021/12/23 02:33:25;;;;;;;8.73;5.30;;;;;;;-140.79;100.00;63287.88;5041677;28;20601;-52
2021/12/23 02:35:51;;;;;;;6.13;3.15;;;;;;;-140.79;100.00;63287.88;5041809;28;20470;-52
2021/12/23 02:38:16;;;;;;;5.30;3.58;;;;;;;-140.79;100.00;63287.88;5038123;28;20524;-51
2021/12/23 02:40:42;;;;;;;4.95;3.35;;;;;;;-140.79;100.00;63287.88;5028806;28;20033;-52
2021/12/23 02:43:13;;;;;;;10.27;6.80;;;;;;;-140.79;100.00;63287.88;5041721;28;20029;-52
2021/12/23 02:45:39;;;;;;;5.32;2.88;;;;;;;-140.79;100.00;63287.88;5041839;28;20116;-53
2021/12/23 02:48:11;;;;;;;60.10;43.78;;;;;;;-140.79;100.00;63287.88;5041700;28;20158;-51
2021/12/23 02:50:36;;;;;;;21.27;16.95;;;;;;;-140.79;100.00;63287.88;5040158;28;20557;-52
2021/12/23 02:53:02;;;;;;;32.72;27.27;;;;;;;-140.79;100.00;63287.88;5041629;28;20029;-51
2021/12/23 02:55:27;;;;;;;185.93;143.68;;;;;;;-140.79;100.00;63287.88;5041613;28;20323;-52
2021/12/23 02:57:53;;;;;;;70.15;54.80;;;;;;;-140.79;100.00;63287.88;5041044;28;20035;-51
2021/12/23 03:00:19;;;;;;;125.38;97.82;;;;;;;-140.79;100.00;63287.88;5041319;28;20041;-51
2021/12/23 03:02:44;;;;;;;156.82;108.30;;;;;;;-140.79;100.00;63287.88;5041858;28;20392;-53
2021/12/23 03:05:10;;;;;;;157.45;109.45;;;;;;;-140.79;100.00;63287.88;5041779;28;20025;-52
2021/12/23 03:07:35;;;;;;;70.75;56.42;;;;;;;-140.79;100.00;63287.88;5041558;28;20025;-52
2021/12/23 03:10:02;;;;;;;65.47;46.28;;;;;;;-140.79;100.00;63287.88;5040974;28;20041;-54
2021/12/23 03:12:28;;;;;;;509.48;392.17;;;;;;;-140.79;100.00;63287.88;5042008;28;20105;-52
2021/12/23 03:14:53;;;;;;;256.67;178.63;;;;;;;-140.79;100.00;63287.88;5041761;28;20029;-52
2021/12/23 03:17:19;;;;;;;19.10;14.40;;;;;;;-140.79;100.00;63287.88;5053505;28;20025;-54
2021/12/23 03:19:44;;;;;;;7.20;3.65;;;;;;;-140.79;100.00;63287.88;5045349;28;20443;-52
2021/12/23 03:22:09;;;;;;;6.35;3.72;;;;;;;-140.79;100.00;63287.88;5041455;28;20052;-52
2021/12/23 03:24:35;;;;;;;17.35;12.52;;;;;;;-140.79;100.00;63287.88;5041669;28;20506;-51
2021/12/23 03:27:00;;;;;;;54.63;43.22;;;;;;;-140.79;100.00;63287.88;5041905;28;20029;-53
2021/12/23 03:29:26;;;;;;;7.95;4.95;;;;;;;-140.79;100.00;63287.88;5042081;28;20029;-53
2021/12/23 03:31:51;;;;;;;9.77;7.00;;;;;;;-140.79;100.00;63287.88;5042246;28;20060;-53
2021/12/23 03:34:17;;;;;;;9.57;6.10;;;;;;;-140.79;100.00;63287.88;5041945;28;20550;-52
2021/12/23 03:36:42;;;;;;;6.93;4.40;;;;;;;-140.79;100.00;63287.88;5042050;28;20332;-51
2021/12/23 03:39:08;;;;;;;7.28;3.72;;;;;;;-140.79;100.00;63287.88;5039882;28;20045;-51
2021/12/23 03:41:33;;;;;;;5.05;3.33;;;;;;;-140.79;100.00;63287.88;5041812;28;20506;-50
2021/12/23 03:43:58;;;;;;;7.53;3.92;;;;;;;-140.79;100.00;63287.88;5041105;28;20530;-53
2021/12/23 03:46:24;;;;;;;5.93;3.88;;;;;;;-140.79;100.00;63287.88;5041326;28;20668;-52
2021/12/23 03:48:49;;;;;;;6.13;3.83;;;;;;;-140.79;100.00;63287.88;5040991;28;20033;-53
2021/12/23 03:51:15;;;;;;;6.22;3.83;;;;;;;-140.79;100.00;63287.88;5041275;28;20513;-52
2021/12/23 03:53:40;;;;;;;8.05;4.65;;;;;;;-140.79;100.00;63287.88;5041374;28;20435;-51
2021/12/23 03:56:06;;;;;;;7.28;4.30;;;;;;;-140.79;100.00;63287.88;5041240;28;20040;-51
2021/12/23 03:58:31;;;;;;;7.25;4.55;;;;;;;-140.79;100.00;63287.88;5036038;28;20044;-51
2021/12/23 04:00:56;;;;;;;8.00;5.18;;;;;;;-140.79;100.00;63287.88;5029658;28;20040;-51
2021/12/23 04:03:22;;;;;;;6.88;4.55;;;;;;;-140.79;100.00;63287.88;5041432;28;20557;-51
2021/12/23 04:05:47;;;;;;;8.95;6.95;;;;;;;-140.79;100.00;63287.88;5041481;28;20423;-54
2021/12/23 04:08:13;;;;;;;15.07;13.40;;;;;;;-140.79;100.00;63287.88;5043621;28;20032;-52
2021/12/23 04:10:38;;;;;;;10.00;6.60;;;;;;;-140.79;100.00;63287.88;5044656;28;20068;-53
2021/12/23 04:13:04;;;;;;;10.95;8.43;;;;;;;-140.79;100.00;63287.88;5044839;28;20115;-53
2021/12/23 04:15:29;;;;;;;8.68;5.05;;;;;;;-140.79;100.00;63287.88;5044428;28;20049;-53
2021/12/23 04:17:55;;;;;;;8.73;5.80;;;;;;;-140.79;100.00;63287.88;5044508;28;20032;-52
2021/12/23 04:20:23;;;;;;;10.20;6.90;;;;;;;-140.79;100.00;63287.88;5027350;28;20033;-52
2021/12/23 04:22:52;;;;;;;6.70;4.65;;;;;;;-140.79;100.00;63287.88;5044319;28;20483;-52
2021/12/23 04:25:19;;;;;;;7.38;4.47;;;;;;;-140.79;100.00;63287.88;5044668;28;20067;-52
2021/12/23 04:27:45;;;;;;;7.18;4.57;;;;;;;-140.79;100.00;63287.88;5044362;28;20072;-52
2021/12/23 04:30:11;;;;;;;6.68;4.70;;;;;;;-140.79;100.00;63287.88;5043118;28;20457;-52
2021/12/23 04:32:36;;;;;;;7.57;4.78;;;;;;;-140.79;100.00;63287.88;5044074;28;20029;-52
2021/12/23 04:35:02;;;;;;;6.22;3.92;;;;;;;-140.79;100.00;63287.88;5043841;28;20028;-54
2021/12/23 04:37:28;;;;;;;7.75;4.80;;;;;;;-140.79;100.00;63287.88;5043968;28;20040;-52
2021/12/23 04:39:53;;;;;;;10.38;6.47;;;;;;;-140.79;100.00;63287.88;5043613;28;20033;-52
2021/12/23 04:42:19;;;;;;;8.48;5.70;;;;;;;-140.79;100.00;63287.88;5043565;28;20039;-55
2021/12/23 04:44:44;;;;;;;6.20;4.05;;;;;;;-140.79;100.00;63287.88;5049626;28;20038;-54
2021/12/23 04:47:10;;;;;;;8.75;5.63;;;;;;;-140.79;100.00;63287.88;5065040;28;20036;-53
2021/12/23 04:49:35;;;;;;;7.57;4.78;;;;;;;-140.79;100.00;63287.88;5062439;28;20024;-52
2021/12/23 04:52:00;;;;;;;9.38;5.97;;;;;;;-140.79;100.00;63287.88;5029629;28;20036;-51
2021/12/23 04:54:26;;;;;;;6.53;4.88;;;;;;;-140.79;100.00;63287.88;5044504;28;20214;-52
2021/12/23 04:56:51;;;;;;;11.43;7.20;;;;;;;-140.79;100.00;63287.88;5043778;28;20410;-52
2021/12/23 04:59:17;;;;;;;11.02;6.07;;;;;;;-140.79;100.00;63287.88;5031706;28;20495;-52
2021/12/23 05:01:43;;;;;;;12.57;8.73;;;;;;;-140.79;100.00;63287.88;5038087;28;20051;-52
2021/12/23 05:04:08;;;;;;;8.00;4.72;;;;;;;-140.79;100.00;63287.88;5043272;28;20029;-52
2021/12/23 05:06:34;;;;;;;8.38;4.35;;;;;;;-140.79;100.00;63287.88;5043566;28;20025;-51
2021/12/23 05:08:59;;;;;;;8.13;4.45;;;;;;;-140.79;100.00;63287.88;5043205;28;20040;-52
2021/12/23 05:11:24;;;;;;;7.30;3.92;;;;;;;-140.79;100.00;63287.88;5043699;28;20466;-52
2021/12/23 05:13:50;;;;;;;8.38;4.53;;;;;;;-140.79;100.00;63287.88;5042780;28;20474;-53
2021/12/23 05:16:16;;;;;;;8.25;6.07;;;;;;;-140.79;100.00;63287.88;5043390;28;20082;-53
2021/12/23 05:18:42;;;;;;;9.73;5.85;;;;;;;-140.79;100.00;63287.88;5041323;28;20438;-51
2021/12/23 05:21:07;;;;;;;11.05;7.18;;;;;;;-140.79;100.00;63287.88;5052368;28;20032;-51
2021/12/23 05:23:32;;;;;;;32.33;26.00;;;;;;;-140.79;100.00;63287.88;5063001;28;20037;-52
2021/12/23 05:25:58;;;;;;;13.68;9.27;;;;;;;-140.79;100.00;63287.88;5063339;28;20287;-53
2021/12/23 05:28:23;;;;;;;28.17;22.13;;;;;;;-140.79;100.00;63287.88;5042838;28;20495;-51
2021/12/23 05:30:49;;;;;;;10.15;7.38;;;;;;;-140.79;100.00;63287.88;5035867;28;20491;-51
2021/12/23 05:33:14;;;;;;;24.02;20.52;;;;;;;-140.79;100.00;63287.88;5033593;28;20037;-52
2021/12/23 05:35:40;;;;;;;7.32;4.32;;;;;;;-140.79;100.00;63287.88;5043190;28;20025;-53
2021/12/23 05:38:05;;;;;;;21.90;16.58;;;;;;;-140.79;100.00;63287.88;5042600;28;20403;-51
2021/12/23 05:40:32;;;;;;;24.50;18.55;;;;;;;-140.79;100.00;63287.88;5062020;28;20032;-51
2021/12/23 05:42:57;;;;;;;14.30;11.15;;;;;;;-140.79;100.00;63287.88;5062605;28;20498;-52
2021/12/23 05:45:23;;;;;;;19.35;14.25;;;;;;;-140.79;100.00;63287.88;5062427;28;20042;-53
2021/12/23 05:47:48;;;;;;;10.85;7.90;;;;;;;-140.79;100.00;63287.88;5058876;28;20024;-53
2021/12/23 05:50:14;;;;;;;8.13;4.90;;;;;;;-140.79;100.00;63287.88;5058462;28;20047;-53
2021/12/23 05:52:40;;;;;;;7.40;4.68;;;;;;;-140.79;100.00;63287.88;5060431;28;20043;-52
2021/12/23 05:55:08;;;;;;;12.02;7.82;;;;;;;-140.79;100.00;63287.88;5058714;28;20086;-53
2021/12/23 05:57:34;;;;;;;15.43;10.57;;;;;;;-140.79;100.00;63287.88;5060311;28;20028;-52
2021/12/23 06:00:00;;;;;;;9.68;5.82;;;;;;;-140.79;100.00;63287.88;5058354;28;20478;-53
2021/12/23 06:02:25;;;;;;;8.93;4.90;;;;;;;-140.79;100.00;63287.88;5057833;28;20071;-54
2021/12/23 06:04:51;;;;;;;6.82;4.05;;;;;;;-140.79;100.00;63287.88;5055044;28;20060;-60
2021/12/23 06:07:16;;;;;;;8.48;5.95;;;;;;;-140.79;100.00;63287.88;5042604;28;20041;-58
2021/12/23 06:09:41;;;;;;;10.77;6.97;;;;;;;-140.79;100.00;63287.88;5042377;28;20033;-57
2021/12/23 06:12:07;;;;;;;8.50;4.57;;;;;;;-140.79;100.00;63287.88;5042346;28;20040;-56
2021/12/23 06:14:32;;;;;;;12.77;7.85;;;;;;;-140.79;100.00;63287.88;5052634;28;20029;-54
2021/12/23 06:16:58;;;;;;;9.35;6.22;;;;;;;-140.79;100.00;63287.88;5030255;28;20055;-54
2021/12/23 06:19:23;;;;;;;13.38;8.70;;;;;;;-140.79;100.00;63287.88;5030382;28;20049;-55
2021/12/23 06:21:49;;;;;;;10.23;6.72;;;;;;;-140.79;100.00;63287.88;5037178;28;20029;-53
2021/12/23 06:24:14;;;;;;;12.23;9.30;;;;;;;-140.79;100.00;63287.88;5041831;28;20025;-55
2021/12/23 06:26:40;;;;;;;17.42;13.50;;;;;;;-140.79;100.00;63287.88;5042337;28;20087;-58
2021/12/23 06:29:05;;;;;;;14.18;8.98;;;;;;;-140.79;100.00;63287.88;5046760;28;20017;-55
2021/12/23 06:31:31;;;;;;;11.95;7.95;;;;;;;-140.79;100.00;63287.88;5043577;28;20021;-55
2021/12/23 06:33:56;;;;;;;15.43;9.80;;;;;;;-140.79;100.00;63287.88;5046990;28;20016;-56
2021/12/23 06:36:21;;;;;;;11.98;8.63;;;;;;;-140.79;100.00;63287.88;5041166;28;20005;-56
2021/12/23 06:38:47;;;;;;;8.10;4.43;;;;;;;-140.79;100.00;63287.88;5043566;28;20025;-55
2021/12/23 06:41:12;;;;;;;6.78;4.40;;;;;;;-140.79;100.00;63287.88;5040840;28;20036;-54
2021/12/23 06:43:38;;;;;;;7.88;4.57;;;;;;;-140.79;100.00;63287.88;5039999;28;20028;-55
2021/12/23 06:46:03;;;;;;;7.25;4.45;;;;;;;-140.79;100.00;63287.88;5040177;28;20039;-57
2021/12/23 06:48:30;;;;;;;9.52;6.88;;;;;;;-140.79;100.00;63287.88;5042191;28;20033;-58
2021/12/23 06:50:56;;;;;;;12.65;7.25;;;;;;;-140.79;100.00;63287.88;5041436;28;20419;-58
2021/12/23 06:53:22;;;;;;;36.30;26.67;;;;;;;-140.79;100.00;63287.88;5050399;28;20479;-57
2021/12/23 06:55:49;;;;;;;14.82;12.35;;;;;;;-140.79;100.00;63287.88;5047401;28;20171;-57
2021/12/23 06:58:15;;;;;;;51.85;34.25;;;;;;;-140.79;100.00;63287.88;5039825;28;20566;-57
2021/12/23 07:00:40;;;;;;;16.23;11.85;;;;;;;-140.79;100.00;63287.88;5026141;28;20048;-57
2021/12/23 07:03:06;;;;;;;300.85;200.30;;;;;;;-140.79;100.00;63287.88;5043326;28;20033;-57
2021/12/23 07:05:32;;;;;;;458.15;318.92;;;;;;;-140.79;100.00;63287.88;5053296;28;20524;-56
2021/12/23 07:08:05;;;;;;;891.40;514.83;;;;;;;-140.79;100.00;63287.88;5045361;28;20522;-56
2021/12/23 07:10:31;;;;;;;393.98;294.48;;;;;;;-140.79;100.00;63287.88;5043590;28;20671;-56
2021/12/23 07:12:57;;;;;;;24.70;21.92;;;;;;;-140.79;100.00;63287.88;5042090;28;20432;-57
2021/12/23 07:15:26;;;;;;;6.95;4.43;;;;;;;-140.79;100.00;63287.88;5040902;28;20558;-59
2021/12/23 07:17:52;;;;;;;10.48;7.28;;;;;;;-140.79;100.00;63287.88;5040899;28;20029;-57
2021/12/23 07:20:17;;;;;;;7.22;4.28;;;;;;;-140.79;100.00;63287.88;5022383;28;20037;-58
2021/12/23 07:22:43;;;;;;;6.90;4.20;;;;;;;-140.79;100.00;63287.88;5040853;28;20037;-60
2021/12/23 07:25:09;;;;;;;6.72;4.28;;;;;;;-140.79;100.00;63287.88;5041553;28;20564;-56
2021/12/23 07:27:34;;;;;;;6.13;4.50;;;;;;;-140.79;100.00;63287.88;5042062;28;20036;-56
2021/12/23 07:30:00;;;;;;;6.95;3.83;;;;;;;-140.79;100.00;63287.88;5040891;28;20126;-58
2021/12/23 07:32:25;;;;;;;7.10;4.63;;;;;;;-140.79;100.00;63287.88;5041363;28;20362;-57
2021/12/23 07:34:51;;;;;;;6.53;4.47;;;;;;;-140.79;100.00;63287.88;5045878;28;20028;-59
2021/12/23 07:37:16;;;;;;;5.45;4.10;;;;;;;-140.79;100.00;63287.88;5060502;28;20028;-58
2021/12/23 07:39:42;;;;;;;7.68;4.53;;;;;;;-140.79;100.00;63287.88;5047852;28;20033;-57
2021/12/23 07:42:07;;;;;;;6.10;4.50;;;;;;;-140.79;100.00;63287.88;5042897;28;20032;-57
2021/12/23 07:44:34;;;;;;;6.68;4.60;;;;;;;-140.79;100.00;63287.88;5045562;28;20024;-57
2021/12/23 07:46:59;;;;;;;6.47;4.43;;;;;;;-140.79;100.00;63287.88;5045410;28;20112;-56
2021/12/23 07:49:24;;;;;;;6.60;4.53;;;;;;;-140.79;100.00;63287.88;5047009;28;20089;-57
2021/12/23 07:51:50;;;;;;;6.88;5.05;;;;;;;-140.79;100.00;63287.88;5047831;28;20506;-59
2021/12/23 07:54:16;;;;;;;6.35;4.38;;;;;;;-140.79;100.00;63287.88;5046502;28;20041;-57
2021/12/23 07:56:41;;;;;;;7.15;4.20;;;;;;;-140.79;100.00;63287.88;5049656;28;20036;-57
2021/12/23 07:59:06;;;;;;;7.22;4.97;;;;;;;-140.79;100.00;63287.88;5042831;28;20021;-57
2021/12/23 08:01:32;;;;;;;5.78;4.43;;;;;;;-140.79;100.00;63287.88;5048357;28;20112;-60
2021/12/23 08:03:57;;;;;;;6.00;4.43;;;;;;;-140.79;100.00;63287.88;5044733;28;20032;-57
2021/12/23 08:06:23;;;;;;;6.97;4.50;;;;;;;-140.79;100.00;63287.88;5043713;28;20044;-58
2021/12/23 08:08:48;;;;;;;7.93;4.90;;;;;;;-140.79;100.00;63287.88;5042837;28;20036;-57
2021/12/23 08:11:13;;;;;;;5.80;4.25;;;;;;;-140.79;100.00;63287.88;5041287;28;20017;-57
2021/12/23 08:13:39;;;;;;;7.55;4.38;;;;;;;-140.79;100.00;63287.88;5043270;28;20143;-58
2021/12/23 08:16:05;;;;;;;6.70;4.40;;;;;;;-140.79;100.00;63287.88;5043048;28;20013;-58
2021/12/23 08:18:30;;;;;;;6.55;4.57;;;;;;;-140.79;100.00;63287.88;5041340;28;20041;-56
2021/12/23 08:20:56;;;;;;;6.55;4.63;;;;;;;-140.79;100.00;63287.88;5030906;28;20037;-58
2021/12/23 08:23:21;;;;;;;13.18;7.90;;;;;;;-140.79;100.00;63287.88;5044197;28;20025;-57
2021/12/23 08:25:47;;;;;;;10.48;6.60;;;;;;;-140.79;100.00;63287.88;5044337;28;20048;-60
2021/12/23 08:28:12;;;;;;;9.73;5.65;;;;;;;-140.79;100.00;63287.88;5046813;28;20050;-58
2021/12/23 08:30:39;;;;;;;7.95;5.20;;;;;;;-140.79;100.00;63287.88;5043961;28;20487;-58
2021/12/23 08:33:05;;;;;;;8.70;5.28;;;;;;;-140.79;100.00;63287.88;5044696;28;20025;-57
2021/12/23 08:35:31;;;;;;;8.80;5.68;;;;;;;-140.79;100.00;63287.88;5044428;28;20429;-57
2021/12/23 08:37:56;;;;;;;7.53;4.45;;;;;;;-140.79;100.00;63287.88;5028449;28;20153;-56
2021/12/23 08:40:23;;;;;;;7.68;5.20;;;;;;;-140.79;100.00;63287.88;5025521;28;20499;-58
2021/12/23 08:42:49;;;;;;;7.05;4.80;;;;;;;-140.79;100.00;63287.88;5044429;28;20086;-58
2021/12/23 08:45:15;;;;;;;8.23;4.63;;;;;;;-140.79;100.00;63287.88;5044154;28;20108;-58
2021/12/23 08:47:40;;;;;;;6.80;4.93;;;;;;;-140.79;100.00;63287.88;5044563;28;20036;-57
2021/12/23 08:50:07;;;;;;;7.72;5.07;;;;;;;-140.79;100.00;63287.88;5044178;28;20040;-58
2021/12/23 08:52:33;;;;;;;6.75;4.97;;;;;;;-140.79;100.00;63287.88;5043382;28;20522;-58
2021/12/23 08:54:58;;;;;;;7.95;5.35;;;;;;;-140.79;100.00;63287.88;5043912;28;20036;-58
2021/12/23 08:57:24;;;;;;;7.07;4.88;;;;;;;-140.79;100.00;63287.88;5045737;28;20028;-61
2021/12/23 08:59:49;;;;;;;6.80;4.97;;;;;;;-140.79;100.00;63287.88;5045670;28;20029;-58
2021/12/23 09:02:14;;;;;;;6.10;4.47;;;;;;;-140.79;100.00;63287.88;5043251;28;20032;-58
2021/12/23 09:04:41;;;;;;;8.88;5.63;;;;;;;-140.79;100.00;63287.88;5051018;28;20017;-58
2021/12/23 09:07:07;;;;;;;6.32;4.80;;;;;;;-140.79;100.00;63287.88;5058904;28;20040;-56
2021/12/23 09:09:34;;;;;;;7.35;4.88;;;;;;;-140.79;100.00;63287.88;5053766;28;20554;-58
2021/12/23 09:12:01;;;;;;;8.02;5.25;;;;;;;-140.79;100.00;63287.88;5055585;28;20522;-54
2021/12/23 09:14:26;;;;;;;7.88;5.15;;;;;;;-140.79;100.00;63287.88;5056495;28;20033;-58
2021/12/23 09:16:52;;;;;;;7.40;5.63;;;;;;;-140.79;100.00;63287.88;5060501;28;20023;-56
2021/12/23 09:19:17;;;;;;;7.15;5.28;;;;;;;-140.79;100.00;63287.88;5057295;28;20087;-59
2021/12/23 09:21:43;;;;;;;8.18;4.85;;;;;;;-140.79;100.00;63287.88;5065352;28;20044;-59
2021/12/23 09:24:09;;;;;;;8.68;5.85;;;;;;;-140.79;100.00;63287.88;5063088;28;20108;-55
2021/12/23 09:26:44;;;;;;;7.00;5.20;;;;;;;-140.79;100.00;63287.88;5059956;28;20021;-57
2021/12/23 09:32:40;;;;;;;8.27;5.20;;;;;;;-140.79;100.00;63287.88;5055033;28;20075;-59
2021/12/23 09:34:41;;;;;;;7.80;5.38;;;;;;;-140.79;100.00;63287.88;5043683;28;20048;-59
2021/12/23 09:37:07;;;;;;;7.07;5.13;;;;;;;-140.79;100.00;63287.88;5060268;28;20025;-59
2021/12/23 09:39:32;;;;;;;8.38;5.20;;;;;;;-140.79;100.00;63287.88;5041077;28;20033;-58
2021/12/23 09:41:58;;;;;;;7.50;4.93;;;;;;;-140.79;100.00;63287.88;5038084;28;20387;-57
2021/12/23 09:44:23;;;;;;;9.60;5.30;;;;;;;-140.79;100.00;63287.88;5025232;28;20428;-59
2021/12/23 09:46:49;;;;;;;7.03;5.25;;;;;;;-140.79;100.00;63287.88;5045014;28;20037;-57
2021/12/23 09:49:14;;;;;;;7.32;5.13;;;;;;;-140.79;100.00;63287.88;5050004;28;20566;-61
2021/12/23 09:51:39;;;;;;;17.20;12.40;;;;;;;-140.79;100.00;63287.88;5050707;28;20033;-57
2021/12/23 09:54:08;;;;;;;16.50;10.23;;;;;;;-140.79;100.00;63287.88;5050046;28;20039;-61
2021/12/23 09:56:33;;;;;;;9.02;7.00;;;;;;;-140.79;100.00;63287.88;5058616;28;20475;-55
2021/12/23 09:58:59;;;;;;;8.55;6.28;;;;;;;-140.79;100.00;63287.88;5050117;28;20072;-56
2021/12/23 10:01:28;;;;;;;9.18;6.43;;;;;;;-140.79;100.00;63287.88;5045058;28;20367;-57
2021/12/23 10:03:55;;;;;;;10.05;6.55;;;;;;;-140.79;100.00;63287.88;5059148;28;20040;-58
2021/12/23 10:06:24;;;;;;;8.85;6.60;;;;;;;-140.79;100.00;63287.88;5058447;28;20082;-58
2021/12/23 10:08:49;;;;;;;8.85;6.30;;;;;;;-140.79;100.00;63287.88;5040761;28;20448;-61
2021/12/23 10:33:13;;;;;;;13.70;8.30;;;;;;;-140.79;100.00;63287.88;5026001;28;20036;-57
2021/12/23 10:38:47;;;;;;;10.52;7.20;;;;;;;-140.79;100.00;63287.88;5050359;28;20505;-57
2021/12/23 10:41:19;;;;;;;10.13;7.35;;;;;;;-140.79;100.00;63287.88;5057467;28;20066;-56
2021/12/23 10:43:47;;;;;;;9.30;7.35;;;;;;;-140.79;100.00;63287.88;5057881;28;20550;-59
2021/12/23 10:46:22;;;;;;;11.35;7.47;;;;;;;-140.79;100.00;63287.88;5057157;28;20085;-55
2021/12/23 10:49:30;;;;;;;10.05;6.72;;;;;;;-140.79;100.00;63287.88;5055667;28;20553;-59
2021/12/23 10:52:07;;;;;;;9.95;6.97;;;;;;;-140.79;100.00;63287.88;5057565;28;20029;-61
2021/12/23 11:00:41;;;;;;;10.40;7.15;;;;;;;-140.79;100.00;63287.88;5054460;28;20199;-60
2021/12/23 11:03:26;;;;;;;12.23;7.32;;;;;;;-140.79;100.00;63287.88;5054239;28;20440;-58
2021/12/23 11:06:19;;;;;;;11.38;7.05;;;;;;;-140.79;100.00;63287.88;5057567;28;20107;-57
2021/12/23 11:08:56;;;;;;;9.57;6.78;;;;;;;-140.79;100.00;63287.88;5052717;28;20496;-57
2021/12/23 11:42:03;;;;;;;9.63;7.32;;;;;;;-140.79;100.00;63287.88;5038054;28;20044;-58
2021/12/23 11:44:31;;;;;;;10.05;7.30;;;;;;;-140.79;100.00;63287.88;5044615;28;20130;-59
2021/12/23 11:47:03;;;;;;;9.52;7.00;;;;;;;-140.79;100.00;63287.88;5045221;28;20025;-58
2021/12/23 11:49:29;;;;;;;10.00;6.95;;;;;;;-140.79;100.00;63287.88;5045384;28;20021;-62
2021/12/23 11:51:55;;;;;;;9.05;6.72;;;;;;;-140.79;100.00;63287.88;5053293;28;20517;-58
2021/12/23 11:54:28;;;;;;;8.60;6.65;;;;;;;-140.79;100.00;63287.88;5063933;28;20092;-61
2021/12/23 11:57:02;;;;;;;9.43;6.90;;;;;;;-140.79;100.00;63287.88;5062540;28;20114;-62
2021/12/23 11:59:27;;;;;;;11.85;7.03;;;;;;;-140.79;100.00;63287.88;5056894;28;20479;-57
2021/12/23 12:01:54;;;;;;;8.27;6.93;;;;;;;-140.79;100.00;63287.88;5040608;28;20043;-58
2021/12/23 12:04:35;;;;;;;10.27;7.40;;;;;;;-140.79;100.00;63287.88;5063743;28;20021;-60
2021/12/23 12:07:02;;;;;;;9.00;6.50;;;;;;;-140.79;100.00;63287.88;5060153;28;20030;-58
2021/12/23 12:09:30;;;;;;;9.90;6.90;;;;;;;-140.79;100.00;63287.88;5061214;28;20060;-60
2021/12/23 12:11:59;;;;;;;10.20;7.18;;;;;;;-140.79;100.00;63287.88;5061337;28;20032;-58